sensor_id;sensor_type;location;lat;lon;timestamp;pressure;altitude;pressure_sealevel;temperature;humidity
20015;BME280;61787;42.022;23.078;2023-01-01T00:00:33;98324.06;;;4.19;93.51
20015;BME280;61787;42.022;23.078;2023-01-01T00:01:35;98329.66;;;4.23;93.84
20015;BME280;61787;42.022;23.078;2023-01-01T00:02:40;98332.34;;;4.28;93.25
20015;BME280;61787;42.022;23.078;2023-01-01T00:03:42;98331.81;;;4.31;94.06
20015;BME280;61787;42.022;23.078;2023-01-01T00:04:44;98329.72;;;4.33;93.30
20015;BME280;61787;42.022;23.078;2023-01-01T00:05:45;98334.28;;;4.38;93.41
20015;BME280;61787;42.022;23.078;2023-01-01T00:06:47;98338.00;;;4.42;92.96
20015;BME280;61787;42.022;23.078;2023-01-01T00:07:48;98328.72;;;4.39;92.67
20015;BME280;61787;42.022;23.078;2023-01-01T00:08:50;98332.44;;;4.43;91.79
20015;BME280;61787;42.022;23.078;2023-01-01T00:10:12;98330.88;;;4.47;91.63
20015;BME280;61787;42.022;23.078;2023-01-01T00:11:28;98338.84;;;4.47;92.33
20015;BME280;61787;42.022;23.078;2023-01-01T00:12:31;98335.13;;;4.48;91.81
20015;BME280;61787;42.022;23.078;2023-01-01T00:13:35;98341.00;;;4.50;92.42
20015;BME280;61787;42.022;23.078;2023-01-01T00:14:37;98336.47;;;4.46;93.65
20015;BME280;61787;42.022;23.078;2023-01-01T00:15:39;98336.91;;;4.38;94.24
20015;BME280;61787;42.022;23.078;2023-01-01T00:16:41;98335.56;;;4.30;95.01
20015;BME280;61787;42.022;23.078;2023-01-01T00:17:43;98337.28;;;4.14;95.33
20015;BME280;61787;42.022;23.078;2023-01-01T00:18:44;98331.00;;;3.94;97.54
20015;BME280;61787;42.022;23.078;2023-01-01T00:19:46;98329.50;;;3.76;98.43
20015;BME280;61787;42.022;23.078;2023-01-01T00:20:47;98332.50;;;3.79;99.04
20015;BME280;61787;42.022;23.078;2023-01-01T00:21:49;98329.78;;;3.74;98.59
20015;BME280;61787;42.022;23.078;2023-01-01T00:22:50;98332.88;;;3.66;98.80
20015;BME280;61787;42.022;23.078;2023-01-01T00:23:56;98336.53;;;3.60;99.68
20015;BME280;61787;42.022;23.078;2023-01-01T00:24:57;98334.44;;;3.62;99.67
20015;BME280;61787;42.022;23.078;2023-01-01T00:25:59;98336.56;;;3.65;99.86
20015;BME280;61787;42.022;23.078;2023-01-01T00:27:01;98339.56;;;3.69;99.91
20015;BME280;61787;42.022;23.078;2023-01-01T00:28:03;98339.84;;;3.72;98.93
20015;BME280;61787;42.022;23.078;2023-01-01T00:29:04;98340.72;;;3.83;98.58
20015;BME280;61787;42.022;23.078;2023-01-01T00:30:07;98341.88;;;3.92;97.25
20015;BME280;61787;42.022;23.078;2023-01-01T00:31:11;98349.63;;;3.99;97.17
20015;BME280;61787;42.022;23.078;2023-01-01T00:32:13;98338.78;;;4.05;96.12
20015;BME280;61787;42.022;23.078;2023-01-01T00:33:22;98340.19;;;4.13;95.46
20015;BME280;61787;42.022;23.078;2023-01-01T00:34:24;98339.19;;;4.19;95.68
20015;BME280;61787;42.022;23.078;2023-01-01T00:35:26;98345.88;;;4.26;94.94
20015;BME280;61787;42.022;23.078;2023-01-01T00:36:28;98344.38;;;4.36;92.73
20015;BME280;61787;42.022;23.078;2023-01-01T00:37:30;98345.94;;;4.37;91.35
20015;BME280;61787;42.022;23.078;2023-01-01T00:38:32;98340.94;;;4.40;91.37
20015;BME280;61787;42.022;23.078;2023-01-01T00:39:33;98340.41;;;4.43;91.73
20015;BME280;61787;42.022;23.078;2023-01-01T00:40:35;98340.94;;;4.40;91.16
20015;BME280;61787;42.022;23.078;2023-01-01T00:41:37;98334.50;;;4.36;90.02
20015;BME280;61787;42.022;23.078;2023-01-01T00:42:38;98344.56;;;4.29;89.36
20015;BME280;61787;42.022;23.078;2023-01-01T00:43:42;98343.91;;;4.12;89.79
20015;BME280;61787;42.022;23.078;2023-01-01T00:44:44;98346.50;;;4.07;90.03
20015;BME280;61787;42.022;23.078;2023-01-01T00:45:46;98340.97;;;4.08;89.77
20015;BME280;61787;42.022;23.078;2023-01-01T00:46:53;98345.50;;;4.13;89.77
20015;BME280;61787;42.022;23.078;2023-01-01T00:47:54;98341.84;;;4.19;90.16
20015;BME280;61787;42.022;23.078;2023-01-01T00:48:56;98339.75;;;4.26;90.15
20015;BME280;61787;42.022;23.078;2023-01-01T00:49:58;98336.09;;;4.32;89.57
20015;BME280;61787;42.022;23.078;2023-01-01T00:50:59;98339.34;;;4.39;88.45
20015;BME280;61787;42.022;23.078;2023-01-01T00:52:01;98340.41;;;4.43;88.61
20015;BME280;61787;42.022;23.078;2023-01-01T00:53:02;98346.81;;;4.47;87.88
20015;BME280;61787;42.022;23.078;2023-01-01T00:54:04;98345.28;;;4.51;87.51
20015;BME280;61787;42.022;23.078;2023-01-01T00:55:06;98346.59;;;4.54;87.78
20015;BME280;61787;42.022;23.078;2023-01-01T00:56:08;98344.75;;;4.54;88.00
20015;BME280;61787;42.022;23.078;2023-01-01T00:57:09;98339.94;;;4.46;88.18
20015;BME280;61787;42.022;23.078;2023-01-01T00:58:11;98344.69;;;4.44;87.78
20015;BME280;61787;42.022;23.078;2023-01-01T00:59:12;98350.44;;;4.36;87.50
20015;BME280;61787;42.022;23.078;2023-01-01T01:00:17;98343.25;;;4.32;88.09
20015;BME280;61787;42.022;23.078;2023-01-01T01:01:19;98344.28;;;4.25;88.33
20015;BME280;61787;42.022;23.078;2023-01-01T01:02:21;98346.63;;;4.22;89.60
20015;BME280;61787;42.022;23.078;2023-01-01T01:03:23;98344.78;;;4.22;89.51
20015;BME280;61787;42.022;23.078;2023-01-01T01:04:31;98349.88;;;4.29;89.84
20015;BME280;61787;42.022;23.078;2023-01-01T01:05:33;98350.44;;;4.36;89.01
20015;BME280;61787;42.022;23.078;2023-01-01T01:06:37;98349.44;;;4.42;88.19
20015;BME280;61787;42.022;23.078;2023-01-01T01:07:38;98346.81;;;4.47;88.31
20015;BME280;61787;42.022;23.078;2023-01-01T01:08:42;98356.41;;;4.53;86.50
20015;BME280;61787;42.022;23.078;2023-01-01T01:09:44;98347.94;;;4.51;86.92
20015;BME280;61787;42.022;23.078;2023-01-01T01:10:46;98352.13;;;4.47;86.80
20015;BME280;61787;42.022;23.078;2023-01-01T01:11:47;98352.13;;;4.47;87.40
20015;BME280;61787;42.022;23.078;2023-01-01T01:12:49;98354.25;;;4.45;86.61
20015;BME280;61787;42.022;23.078;2023-01-01T01:13:54;98354.75;;;4.42;86.63
20015;BME280;61787;42.022;23.078;2023-01-01T01:14:56;98353.13;;;4.41;86.81
20015;BME280;61787;42.022;23.078;2023-01-01T01:15:57;98353.13;;;4.41;87.28
20015;BME280;61787;42.022;23.078;2023-01-01T01:16:59;98349.69;;;4.36;88.05
20015;BME280;61787;42.022;23.078;2023-01-01T01:18:00;98353.31;;;4.24;89.26
20015;BME280;61787;42.022;23.078;2023-01-01T01:19:04;98344.53;;;4.24;92.74
20015;BME280;61787;42.022;23.078;2023-01-01T01:20:07;98348.78;;;4.25;92.86
20015;BME280;61787;42.022;23.078;2023-01-01T01:21:09;98343.97;;;4.22;91.11
20015;BME280;61787;42.022;23.078;2023-01-01T01:22:14;98341.06;;;4.23;90.25
20015;BME280;61787;42.022;23.078;2023-01-01T01:23:16;98344.50;;;4.19;90.65
20015;BME280;61787;42.022;23.078;2023-01-01T01:24:17;98338.09;;;4.15;90.06
20015;BME280;61787;42.022;23.078;2023-01-01T01:25:20;98344.41;;;4.09;89.90
20015;BME280;61787;42.022;23.078;2023-01-01T01:26:23;98347.03;;;4.04;89.98
20015;BME280;61787;42.022;23.078;2023-01-01T01:27:25;98355.94;;;3.93;89.75
20015;BME280;61787;42.022;23.078;2023-01-01T01:28:27;98348.41;;;3.79;91.39
20015;BME280;61787;42.022;23.078;2023-01-01T01:29:31;98349.66;;;3.72;91.04
20015;BME280;61787;42.022;23.078;2023-01-01T01:30:32;98350.94;;;3.69;91.91
20015;BME280;61787;42.022;23.078;2023-01-01T01:31:34;98348.00;;;3.66;92.28
20015;BME280;61787;42.022;23.078;2023-01-01T01:32:36;98351.44;;;3.66;92.21
20015;BME280;61787;42.022;23.078;2023-01-01T01:33:38;98343.25;;;3.68;92.68
20015;BME280;61787;42.022;23.078;2023-01-01T01:34:40;98351.72;;;3.70;92.33
20015;BME280;61787;42.022;23.078;2023-01-01T01:35:41;98339.78;;;3.67;92.81
20015;BME280;61787;42.022;23.078;2023-01-01T01:36:43;98345.56;;;3.64;92.47
20015;BME280;61787;42.022;23.078;2023-01-01T01:37:44;98346.66;;;3.63;93.49
20015;BME280;61787;42.022;23.078;2023-01-01T01:38:46;98342.94;;;3.64;93.22
20015;BME280;61787;42.022;23.078;2023-01-01T01:39:47;98343.50;;;3.66;92.68
20015;BME280;61787;42.022;23.078;2023-01-01T01:40:55;98341.28;;;3.58;93.11
20015;BME280;61787;42.022;23.078;2023-01-01T01:41:56;98342.81;;;3.54;93.47
20015;BME280;61787;42.022;23.078;2023-01-01T01:42:58;98341.25;;;3.53;93.60
20015;BME280;61787;42.022;23.078;2023-01-01T01:44:02;98339.63;;;3.52;93.47
20015;BME280;61787;42.022;23.078;2023-01-01T01:45:05;98340.72;;;3.56;94.53
20015;BME280;61787;42.022;23.078;2023-01-01T01:46:14;98338.88;;;3.57;94.26
20015;BME280;61787;42.022;23.078;2023-01-01T01:47:31;98336.53;;;3.60;94.31
20015;BME280;61787;42.022;23.078;2023-01-01T01:48:37;98330.75;;;3.63;95.07
20015;BME280;61787;42.022;23.078;2023-01-01T01:49:40;98331.84;;;3.67;94.19
20015;BME280;61787;42.022;23.078;2023-01-01T01:50:45;98329.78;;;3.74;94.61
20015;BME280;61787;42.022;23.078;2023-01-01T01:51:48;98332.97;;;3.76;94.21
20015;BME280;61787;42.022;23.078;2023-01-01T01:53:24;98322.03;;;3.68;94.02
20015;BME280;61787;42.022;23.078;2023-01-01T01:54:27;98332.81;;;3.61;93.65
20015;BME280;61787;42.022;23.078;2023-01-01T01:55:32;98334.25;;;3.69;93.65
20015;BME280;61787;42.022;23.078;2023-01-01T01:56:58;98329.84;;;3.79;93.84
20015;BME280;61787;42.022;23.078;2023-01-01T01:58:02;98336.75;;;3.85;93.17
20015;BME280;61787;42.022;23.078;2023-01-01T01:59:05;98325.09;;;3.86;93.28
20015;BME280;61787;42.022;23.078;2023-01-01T02:00:07;98336.81;;;3.91;92.38
20015;BME280;61787;42.022;23.078;2023-01-01T02:01:12;98328.31;;;3.89;91.88
20015;BME280;61787;42.022;23.078;2023-01-01T02:02:19;98330.97;;;3.89;92.97
20015;BME280;61787;42.022;23.078;2023-01-01T02:04:38;98329.97;;;3.95;92.27
20015;BME280;61787;42.022;23.078;2023-01-01T02:05:40;98326.81;;;3.98;92.10
20015;BME280;61787;42.022;23.078;2023-01-01T02:06:42;98326.28;;;4.01;92.35
20015;BME280;61787;42.022;23.078;2023-01-01T02:07:45;98326.59;;;4.04;91.75
20015;BME280;61787;42.022;23.078;2023-01-01T02:08:48;98326.88;;;4.08;91.20
20015;BME280;61787;42.022;23.078;2023-01-01T02:09:50;98323.97;;;4.09;91.24
20015;BME280;61787;42.022;23.078;2023-01-01T02:10:52;98331.09;;;4.04;90.27
20015;BME280;61787;42.022;23.078;2023-01-01T02:11:53;98333.72;;;3.99;89.03
20015;BME280;61787;42.022;23.078;2023-01-01T02:12:55;98324.91;;;3.93;89.27
20015;BME280;61787;42.022;23.078;2023-01-01T02:13:59;98331.00;;;3.94;90.15
20015;BME280;61787;42.022;23.078;2023-01-01T02:15:02;98333.09;;;3.92;89.68
20015;BME280;61787;42.022;23.078;2023-01-01T02:16:41;98329.28;;;3.77;90.72
20015;BME280;61787;42.022;23.078;2023-01-01T02:18:04;98337.03;;;3.57;91.40
20015;BME280;61787;42.022;23.078;2023-01-01T02:23:04;98331.53;;;3.37;91.55
20015;BME280;61787;42.022;23.078;2023-01-01T02:27:57;98353.84;;;2.97;96.63
20015;BME280;61787;42.022;23.078;2023-01-01T02:29:06;98347.56;;;3.04;97.05
20015;BME280;61787;42.022;23.078;2023-01-01T02:30:11;98350.25;;;3.09;96.35
20015;BME280;61787;42.022;23.078;2023-01-01T02:31:15;98351.06;;;3.09;96.78
20015;BME280;61787;42.022;23.078;2023-01-01T02:32:28;98351.50;;;3.23;96.30
20015;BME280;61787;42.022;23.078;2023-01-01T02:33:33;98352.44;;;3.33;95.09
20015;BME280;61787;42.022;23.078;2023-01-01T02:34:42;98350.63;;;3.39;94.32
20015;BME280;61787;42.022;23.078;2023-01-01T02:35:49;98352.72;;;3.37;93.71
20015;BME280;61787;42.022;23.078;2023-01-01T02:36:54;98348.72;;;3.34;93.53
20015;BME280;61787;42.022;23.078;2023-01-01T02:37:59;98351.63;;;3.33;92.93
20015;BME280;61787;42.022;23.078;2023-01-01T02:39:05;98357.22;;;3.36;93.64
20015;BME280;61787;42.022;23.078;2023-01-01T02:40:08;98359.13;;;3.41;93.35
20015;BME280;61787;42.022;23.078;2023-01-01T02:41:23;98357.53;;;3.40;93.64
20015;BME280;61787;42.022;23.078;2023-01-01T02:42:27;98357.00;;;3.38;92.89
20015;BME280;61787;42.022;23.078;2023-01-01T02:43:29;98357.41;;;3.30;92.27
20015;BME280;61787;42.022;23.078;2023-01-01T02:44:35;98362.28;;;3.16;93.16
20015;BME280;61787;42.022;23.078;2023-01-01T02:45:37;98358.47;;;3.07;93.98
20015;BME280;61787;42.022;23.078;2023-01-01T02:46:38;98367.84;;;3.15;93.47
20015;BME280;61787;42.022;23.078;2023-01-01T02:47:40;98365.31;;;3.25;93.89
20015;BME280;61787;42.022;23.078;2023-01-01T02:48:50;98356.94;;;3.33;93.73
20015;BME280;61787;42.022;23.078;2023-01-01T02:49:54;98363.34;;;3.37;93.06
20015;BME280;61787;42.022;23.078;2023-01-01T02:50:58;98355.91;;;3.39;92.20
20015;BME280;61787;42.022;23.078;2023-01-01T02:52:18;98360.44;;;3.38;91.95
20015;BME280;61787;42.022;23.078;2023-01-01T02:53:31;98364.16;;;3.37;92.04
20015;BME280;61787;42.022;23.078;2023-01-01T02:56:02;98369.19;;;3.39;91.73
20015;BME280;61787;42.022;23.078;2023-01-01T02:57:19;98367.38;;;3.44;91.72
20015;BME280;61787;42.022;23.078;2023-01-01T03:00:07;98364.53;;;3.51;92.33
20015;BME280;61787;42.022;23.078;2023-01-01T03:01:32;98363.56;;;3.57;91.58
20015;BME280;61787;42.022;23.078;2023-01-01T03:04:02;98362.06;;;3.66;91.24
20015;BME280;61787;42.022;23.078;2023-01-01T03:07:28;98362.94;;;3.50;90.74
20015;BME280;61787;42.022;23.078;2023-01-01T03:08:47;98369.75;;;3.41;91.02
20015;BME280;61787;42.022;23.078;2023-01-01T03:10:12;98371.53;;;3.35;92.13
20015;BME280;61787;42.022;23.078;2023-01-01T03:11:18;98368.25;;;3.28;92.19
20015;BME280;61787;42.022;23.078;2023-01-01T03:12:43;98368.13;;;3.18;92.99
20015;BME280;61787;42.022;23.078;2023-01-01T03:13:50;98370.00;;;3.18;93.52
20015;BME280;61787;42.022;23.078;2023-01-01T03:14:57;98374.13;;;3.30;93.62
20015;BME280;61787;42.022;23.078;2023-01-01T03:16:11;98370.78;;;3.40;91.72
20015;BME280;61787;42.022;23.078;2023-01-01T03:17:29;98367.72;;;3.48;91.42
20015;BME280;61787;42.022;23.078;2023-01-01T03:18:39;98373.53;;;3.50;91.36
20015;BME280;61787;42.022;23.078;2023-01-01T03:19:44;98373.06;;;3.53;91.31
20015;BME280;61787;42.022;23.078;2023-01-01T03:20:50;98366.69;;;3.54;90.54
20015;BME280;61787;42.022;23.078;2023-01-01T03:21:57;98367.25;;;3.56;90.05
20015;BME280;61787;42.022;23.078;2023-01-01T03:23:06;98371.56;;;3.62;90.07
20015;BME280;61787;42.022;23.078;2023-01-01T03:24:16;98370.56;;;3.68;88.98
20015;BME280;61787;42.022;23.078;2023-01-01T03:25:27;98376.47;;;3.75;87.85
20015;BME280;61787;42.022;23.078;2023-01-01T03:26:30;98371.78;;;3.82;87.23
20015;BME280;61787;42.022;23.078;2023-01-01T03:27:40;98366.75;;;3.86;86.53
20015;BME280;61787;42.022;23.078;2023-01-01T03:28:53;98375.28;;;3.88;86.40
20015;BME280;61787;42.022;23.078;2023-01-01T03:29:59;98376.09;;;3.89;86.70
20015;BME280;61787;42.022;23.078;2023-01-01T03:31:02;98378.97;;;3.87;86.11
20015;BME280;61787;42.022;23.078;2023-01-01T03:32:06;98374.38;;;3.77;86.79
20015;BME280;61787;42.022;23.078;2023-01-01T03:34:29;98370.41;;;3.53;87.96
20015;BME280;61787;42.022;23.078;2023-01-01T03:35:49;98362.81;;;3.40;87.94
20015;BME280;61787;42.022;23.078;2023-01-01T03:36:55;98371.28;;;3.37;88.70
20015;BME280;61787;42.022;23.078;2023-01-01T03:37:59;98372.38;;;3.41;88.08
20015;BME280;61787;42.022;23.078;2023-01-01T03:39:11;98373.44;;;3.40;88.44
20015;BME280;61787;42.022;23.078;2023-01-01T03:40:14;98370.19;;;3.33;88.45
20015;BME280;61787;42.022;23.078;2023-01-01T03:41:26;98377.00;;;3.29;89.61
20015;BME280;61787;42.022;23.078;2023-01-01T03:42:42;98378.44;;;3.15;89.63
20015;BME280;61787;42.022;23.078;2023-01-01T03:46:59;98379.22;;;2.93;92.76
20015;BME280;61787;42.022;23.078;2023-01-01T03:48:01;98375.91;;;3.03;92.50
20015;BME280;61787;42.022;23.078;2023-01-01T03:49:07;98379.00;;;3.17;91.75
20015;BME280;61787;42.022;23.078;2023-01-01T03:50:10;98374.28;;;3.24;91.28
20015;BME280;61787;42.022;23.078;2023-01-01T03:51:20;98381.22;;;3.25;91.23
20015;BME280;61787;42.022;23.078;2023-01-01T03:52:31;98384.72;;;3.30;90.49
20015;BME280;61787;42.022;23.078;2023-01-01T03:53:41;98385.53;;;3.31;90.86
20015;BME280;61787;42.022;23.078;2023-01-01T03:55:00;98375.97;;;3.30;90.17
20015;BME280;61787;42.022;23.078;2023-01-01T03:56:34;98368.69;;;3.20;90.53
20015;BME280;61787;42.022;23.078;2023-01-01T03:59:08;98377.81;;;2.86;92.77
20015;BME280;61787;42.022;23.078;2023-01-01T04:00:16;98385.97;;;2.84;93.37
20015;BME280;61787;42.022;23.078;2023-01-01T04:01:25;98387.59;;;2.85;93.70
20015;BME280;61787;42.022;23.078;2023-01-01T04:02:34;98387.59;;;2.85;94.00
20015;BME280;61787;42.022;23.078;2023-01-01T04:03:39;98380.59;;;2.96;94.04
20015;BME280;61787;42.022;23.078;2023-01-01T04:04:42;98383.47;;;2.94;94.22
20015;BME280;61787;42.022;23.078;2023-01-01T04:05:44;98384.03;;;2.96;94.00
20015;BME280;61787;42.022;23.078;2023-01-01T04:06:46;98383.06;;;3.03;94.50
20015;BME280;61787;42.022;23.078;2023-01-01T04:07:48;98382.56;;;3.06;94.48
20015;BME280;61787;42.022;23.078;2023-01-01T04:08:52;98389.94;;;3.04;94.41
20015;BME280;61787;42.022;23.078;2023-01-01T04:09:59;98393.47;;;3.09;94.20
20015;BME280;61787;42.022;23.078;2023-01-01T04:11:06;98388.56;;;3.18;93.88
20015;BME280;61787;42.022;23.078;2023-01-01T04:12:30;98380.41;;;3.24;93.76
20015;BME280;61787;42.022;23.078;2023-01-01T04:13:45;98383.44;;;3.33;93.02
20015;BME280;61787;42.022;23.078;2023-01-01T04:14:46;98381.31;;;3.35;92.58
20015;BME280;61787;42.022;23.078;2023-01-01T04:15:48;98383.56;;;3.43;90.97
20015;BME280;61787;42.022;23.078;2023-01-01T04:16:50;98374.34;;;3.51;90.22
20015;BME280;61787;42.022;23.078;2023-01-01T04:17:53;98372.84;;;3.60;89.80
20015;BME280;61787;42.022;23.078;2023-01-01T04:18:55;98371.84;;;3.66;88.28
20015;BME280;61787;42.022;23.078;2023-01-01T04:19:56;98373.75;;;3.70;87.67
20015;BME280;61787;42.022;23.078;2023-01-01T04:20:58;98375.66;;;3.75;87.55
20015;BME280;61787;42.022;23.078;2023-01-01T04:22:00;98377.03;;;3.77;87.38
20015;BME280;61787;42.022;23.078;2023-01-01T04:23:02;98378.63;;;3.78;86.75
20015;BME280;61787;42.022;23.078;2023-01-01T04:24:04;98379.69;;;3.77;86.83
20015;BME280;61787;42.022;23.078;2023-01-01T04:25:06;98372.75;;;3.76;87.18
20015;BME280;61787;42.022;23.078;2023-01-01T04:26:12;98373.06;;;3.80;86.57
20015;BME280;61787;42.022;23.078;2023-01-01T04:27:14;98380.78;;;3.81;86.51
20015;BME280;61787;42.022;23.078;2023-01-01T04:28:16;98377.06;;;3.82;87.16
20015;BME280;61787;42.022;23.078;2023-01-01T04:29:17;98379.72;;;3.82;86.72
20015;BME280;61787;42.022;23.078;2023-01-01T04:30:19;98376.47;;;3.75;86.61
20015;BME280;61787;42.022;23.078;2023-01-01T04:31:21;98375.66;;;3.75;85.83
20015;BME280;61787;42.022;23.078;2023-01-01T04:32:22;98374.88;;;3.74;86.08
20015;BME280;61787;42.022;23.078;2023-01-01T04:33:24;98374.38;;;3.77;85.81
20015;BME280;61787;42.022;23.078;2023-01-01T04:34:25;98378.13;;;3.81;85.78
20015;BME280;61787;42.022;23.078;2023-01-01T04:35:27;98376.03;;;3.83;86.29
20015;BME280;61787;42.022;23.078;2023-01-01T04:36:29;98380.28;;;3.84;85.58
20015;BME280;61787;42.022;23.078;2023-01-01T04:37:30;98376.56;;;3.85;85.30
20015;BME280;61787;42.022;23.078;2023-01-01T04:38:35;98377.06;;;3.82;86.02
20015;BME280;61787;42.022;23.078;2023-01-01T04:39:37;98373.88;;;3.80;85.50
20015;BME280;61787;42.022;23.078;2023-01-01T04:40:39;98378.59;;;3.73;86.78
20015;BME280;61787;42.022;23.078;2023-01-01T04:41:40;98377.16;;;3.66;87.43
20015;BME280;61787;42.022;23.078;2023-01-01T04:42:42;98375.44;;;3.55;87.07
20015;BME280;61787;42.022;23.078;2023-01-01T04:43:47;98373.44;;;3.40;88.41
20015;BME280;61787;42.022;23.078;2023-01-01T04:44:52;98373.31;;;3.30;89.44
20015;BME280;61787;42.022;23.078;2023-01-01T04:46:03;98371.72;;;3.29;89.35
20015;BME280;61787;42.022;23.078;2023-01-01T04:47:05;98381.38;;;3.18;90.27
20015;BME280;61787;42.022;23.078;2023-01-01T04:48:07;98377.91;;;3.13;89.97
20015;BME280;61787;42.022;23.078;2023-01-01T04:49:09;98371.47;;;3.09;89.84
20015;BME280;61787;42.022;23.078;2023-01-01T04:50:10;98370.06;;;3.01;90.33
20015;BME280;61787;42.022;23.078;2023-01-01T04:51:13;98378.03;;;2.84;90.31
20015;BME280;61787;42.022;23.078;2023-01-01T04:52:15;98376.06;;;2.58;90.99
20015;BME280;61787;42.022;23.078;2023-01-01T04:53:17;98380.59;;;2.41;92.19
20015;BME280;61787;42.022;23.078;2023-01-01T04:54:18;98376.25;;;2.35;92.90
20015;BME280;61787;42.022;23.078;2023-01-01T04:55:20;98378.19;;;2.23;93.95
20015;BME280;61787;42.022;23.078;2023-01-01T04:56:21;98381.38;;;2.08;95.35
20015;BME280;61787;42.022;23.078;2023-01-01T04:57:23;98384.75;;;2.03;95.97
20015;BME280;61787;42.022;23.078;2023-01-01T04:58:25;98377.19;;;1.95;96.66
20015;BME280;61787;42.022;23.078;2023-01-01T04:59:28;98379.59;;;1.97;97.18
20015;BME280;61787;42.022;23.078;2023-01-01T05:00:30;98382.16;;;1.92;97.00
20015;BME280;61787;42.022;23.078;2023-01-01T05:01:32;98381.84;;;1.88;97.78
20015;BME280;61787;42.022;23.078;2023-01-01T05:02:33;98387.59;;;1.85;97.77
20015;BME280;61787;42.022;23.078;2023-01-01T05:03:35;98386.25;;;1.83;97.97
20015;BME280;61787;42.022;23.078;2023-01-01T05:04:37;98382.31;;;1.85;97.78
20015;BME280;61787;42.022;23.078;2023-01-01T05:05:39;98382.16;;;1.92;97.54
20015;BME280;61787;42.022;23.078;2023-01-01T05:06:40;98387.59;;;1.85;97.91
20015;BME280;61787;42.022;23.078;2023-01-01T05:07:42;98387.75;;;1.79;98.16
20015;BME280;61787;42.022;23.078;2023-01-01T05:08:46;98392.47;;;1.77;98.01
20015;BME280;61787;42.022;23.078;2023-01-01T05:09:48;98387.97;;;1.77;98.12
20015;BME280;61787;42.022;23.078;2023-01-01T05:10:49;98396.94;;;1.76;98.25
20015;BME280;61787;42.022;23.078;2023-01-01T05:11:53;98398.66;;;1.82;98.56
20015;BME280;61787;42.022;23.078;2023-01-01T05:12:56;98393.69;;;1.86;98.52
20015;BME280;61787;42.022;23.078;2023-01-01T05:13:59;98398.25;;;1.90;98.04
20015;BME280;61787;42.022;23.078;2023-01-01T05:15:00;98389.19;;;1.86;98.09
20015;BME280;61787;42.022;23.078;2023-01-01T05:16:03;98396.09;;;1.87;97.93
20015;BME280;61787;42.022;23.078;2023-01-01T05:17:05;98389.19;;;1.86;97.91
20015;BME280;61787;42.022;23.078;2023-01-01T05:18:07;98395.38;;;1.92;98.01
20015;BME280;61787;42.022;23.078;2023-01-01T05:19:08;98388.75;;;1.89;97.83
20015;BME280;61787;42.022;23.078;2023-01-01T05:20:10;98395.97;;;1.94;97.99
20015;BME280;61787;42.022;23.078;2023-01-01T05:21:17;98399.16;;;1.96;97.21
20015;BME280;61787;42.022;23.078;2023-01-01T05:22:19;98399.00;;;2.02;97.66
20015;BME280;61787;42.022;23.078;2023-01-01T05:23:21;98396.38;;;2.02;99.14
20015;BME280;61787;42.022;23.078;2023-01-01T05:24:23;98389.38;;;1.96;99.64
20015;BME280;61787;42.022;23.078;2023-01-01T05:25:24;98396.19;;;1.92;98.99
20015;BME280;61787;42.022;23.078;2023-01-01T05:26:28;98395.47;;;1.97;99.45
20015;BME280;61787;42.022;23.078;2023-01-01T05:27:30;98396.38;;;2.02;99.21
20015;BME280;61787;42.022;23.078;2023-01-01T05:28:32;98401.06;;;2.00;98.33
20015;BME280;61787;42.022;23.078;2023-01-01T05:29:33;98399.16;;;1.96;97.93
20015;BME280;61787;42.022;23.078;2023-01-01T05:30:38;98402.06;;;1.94;97.52
20015;BME280;61787;42.022;23.078;2023-01-01T05:31:40;98401.78;;;1.96;97.21
20015;BME280;61787;42.022;23.078;2023-01-01T05:32:42;98392.88;;;1.85;96.72
20015;BME280;61787;42.022;23.078;2023-01-01T05:33:44;98403.19;;;1.70;96.99
20015;BME280;61787;42.022;23.078;2023-01-01T05:34:45;98402.09;;;1.54;98.05
20015;BME280;61787;42.022;23.078;2023-01-01T05:35:52;98400.16;;;1.50;98.61
20015;BME280;61787;42.022;23.078;2023-01-01T05:36:53;98400.50;;;1.53;99.36
20015;BME280;61787;42.022;23.078;2023-01-01T05:37:56;98400.94;;;1.62;99.37
20015;BME280;61787;42.022;23.078;2023-01-01T05:38:58;98402.06;;;1.66;98.83
20015;BME280;61787;42.022;23.078;2023-01-01T05:40:00;98399.28;;;1.73;98.25
20015;BME280;61787;42.022;23.078;2023-01-01T05:41:06;98401.69;;;1.74;97.83
20015;BME280;61787;42.022;23.078;2023-01-01T05:42:08;98398.06;;;1.80;97.45
20015;BME280;61787;42.022;23.078;2023-01-01T05:43:10;98404.53;;;1.84;97.19
20015;BME280;61787;42.022;23.078;2023-01-01T05:44:12;98404.59;;;1.89;96.78
20015;BME280;61787;42.022;23.078;2023-01-01T05:45:16;98400.22;;;1.95;96.14
20015;BME280;61787;42.022;23.078;2023-01-01T05:46:21;98399.97;;;1.96;95.86
20015;BME280;61787;42.022;23.078;2023-01-01T05:47:23;98406.28;;;1.95;95.34
20015;BME280;61787;42.022;23.078;2023-01-01T05:48:29;98401.00;;;1.95;95.24
20015;BME280;61787;42.022;23.078;2023-01-01T05:49:31;98399.88;;;1.91;95.78
20015;BME280;61787;42.022;23.078;2023-01-01T05:50:32;98404.13;;;1.92;95.92
20015;BME280;61787;42.022;23.078;2023-01-01T05:51:35;98399.31;;;1.89;96.06
20015;BME280;61787;42.022;23.078;2023-01-01T05:52:35;98405.16;;;1.91;96.01
20015;BME280;61787;42.022;23.078;2023-01-01T05:53:38;98404.59;;;1.89;96.02
20015;BME280;61787;42.022;23.078;2023-01-01T05:54:39;98394.25;;;1.88;95.63
20015;BME280;61787;42.022;23.078;2023-01-01T05:55:41;98398.84;;;1.92;96.23
20015;BME280;61787;42.022;23.078;2023-01-01T05:56:43;98399.63;;;1.93;95.52
20015;BME280;61787;42.022;23.078;2023-01-01T05:57:44;98404.78;;;1.99;95.44
20015;BME280;61787;42.022;23.078;2023-01-01T05:58:46;98403.81;;;2.05;95.46
20015;BME280;61787;42.022;23.078;2023-01-01T05:59:47;98412.31;;;2.07;95.42
20015;BME280;61787;42.022;23.078;2023-01-01T06:00:49;98397.13;;;2.14;95.33
20015;BME280;61787;42.022;23.078;2023-01-01T06:01:50;98404.31;;;2.19;95.10
20015;BME280;61787;42.022;23.078;2023-01-01T06:02:52;98403.59;;;2.24;94.65
20015;BME280;61787;42.022;23.078;2023-01-01T06:03:56;98408.50;;;2.32;94.35